sensor_id;sensor_type;location;lat;lon;timestamp;P1;durP1;ratioP1;P2;durP2;ratioP2
79460;SDS011;68929;42.666;23.324;2023-07-31T00:01:33;4.60;;;4.07;;
79460;SDS011;68929;42.666;23.324;2023-07-31T00:03:58;4.45;;;3.40;;
79460;SDS011;68929;42.666;23.324;2023-07-31T00:06:24;4.45;;;4.05;;
79460;SDS011;68929;42.666;23.324;2023-07-31T00:08:49;4.53;;;4.13;;
79460;SDS011;68929;42.666;23.324;2023-07-31T00:11:14;4.18;;;3.83;;
79460;SDS011;68929;42.666;23.324;2023-07-31T00:13:40;4.10;;;3.80;;
79460;SDS011;68929;42.666;23.324;2023-07-31T00:16:05;5.00;;;4.28;;
79460;SDS011;68929;42.666;23.324;2023-07-31T00:18:31;4.03;;;3.67;;
79460;SDS011;68929;42.666;23.324;2023-07-31T00:20:56;6.85;;;3.97;;
79460;SDS011;68929;42.666;23.324;2023-07-31T00:23:21;4.82;;;4.43;;
79460;SDS011;68929;42.666;23.324;2023-07-31T00:25:47;5.13;;;4.20;;
79460;SDS011;68929;42.666;23.324;2023-07-31T00:28:12;5.28;;;4.65;;
79460;SDS011;68929;42.666;23.324;2023-07-31T00:30:37;6.43;;;5.18;;
79460;SDS011;68929;42.666;23.324;2023-07-31T00:33:03;5.88;;;5.38;;
79460;SDS011;68929;42.666;23.324;2023-07-31T00:35:28;6.65;;;6.00;;
79460;SDS011;68929;42.666;23.324;2023-07-31T00:37:54;5.57;;;4.63;;
79460;SDS011;68929;42.666;23.324;2023-07-31T00:40:19;5.28;;;4.78;;
79460;SDS011;68929;42.666;23.324;2023-07-31T00:42:45;6.43;;;5.82;;
79460;SDS011;68929;42.666;23.324;2023-07-31T00:45:10;6.55;;;5.95;;
79460;SDS011;68929;42.666;23.324;2023-07-31T00:47:35;5.93;;;5.35;;
79460;SDS011;68929;42.666;23.324;2023-07-31T00:50:01;6.82;;;6.07;;
79460;SDS011;68929;42.666;23.324;2023-07-31T00:52:26;7.80;;;7.20;;
79460;SDS011;68929;42.666;23.324;2023-07-31T00:54:51;7.00;;;6.45;;
79460;SDS011;68929;42.666;23.324;2023-07-31T00:57:17;8.98;;;8.27;;
79460;SDS011;68929;42.666;23.324;2023-07-31T00:59:43;6.43;;;5.85;;
79460;SDS011;68929;42.666;23.324;2023-07-31T01:02:08;8.25;;;7.47;;
79460;SDS011;68929;42.666;23.324;2023-07-31T01:04:34;8.38;;;7.68;;
79460;SDS011;68929;42.666;23.324;2023-07-31T01:07:06;10.30;;;9.38;;
79460;SDS011;68929;42.666;23.324;2023-07-31T01:09:45;8.85;;;8.00;;
79460;SDS011;68929;42.666;23.324;2023-07-31T01:12:17;9.70;;;8.88;;
79460;SDS011;68929;42.666;23.324;2023-07-31T01:15:18;9.82;;;9.00;;
79460;SDS011;68929;42.666;23.324;2023-07-31T01:17:39;10.30;;;9.40;;
79460;SDS011;68929;42.666;23.324;2023-07-31T01:20:10;11.60;;;10.55;;
79460;SDS011;68929;42.666;23.324;2023-07-31T01:27:39;13.20;;;11.95;;
79460;SDS011;68929;42.666;23.324;2023-07-31T01:30:16;12.52;;;10.00;;
79460;SDS011;68929;42.666;23.324;2023-07-31T01:32:47;17.05;;;15.35;;
79460;SDS011;68929;42.666;23.324;2023-07-31T01:35:14;14.88;;;13.55;;
79460;SDS011;68929;42.666;23.324;2023-07-31T01:37:40;13.27;;;12.02;;
79460;SDS011;68929;42.666;23.324;2023-07-31T01:40:06;21.08;;;19.10;;
79460;SDS011;68929;42.666;23.324;2023-07-31T01:42:32;22.02;;;19.95;;
79460;SDS011;68929;42.666;23.324;2023-07-31T01:44:57;24.15;;;17.40;;
79460;SDS011;68929;42.666;23.324;2023-07-31T01:47:23;22.33;;;20.25;;
79460;SDS011;68929;42.666;23.324;2023-07-31T01:49:48;17.10;;;15.48;;
79460;SDS011;68929;42.666;23.324;2023-07-31T01:52:14;23.58;;;21.33;;
79460;SDS011;68929;42.666;23.324;2023-07-31T01:54:39;22.35;;;20.33;;
79460;SDS011;68929;42.666;23.324;2023-07-31T01:57:05;21.73;;;19.73;;
79460;SDS011;68929;42.666;23.324;2023-07-31T01:59:30;28.75;;;25.95;;
79460;SDS011;68929;42.666;23.324;2023-07-31T02:01:56;29.88;;;27.05;;
79460;SDS011;68929;42.666;23.324;2023-07-31T02:04:22;27.98;;;25.38;;
79460;SDS011;68929;42.666;23.324;2023-07-31T02:06:47;19.23;;;17.52;;
79460;SDS011;68929;42.666;23.324;2023-07-31T02:09:13;30.25;;;27.40;;
79460;SDS011;68929;42.666;23.324;2023-07-31T02:11:38;22.17;;;20.20;;
79460;SDS011;68929;42.666;23.324;2023-07-31T02:14:03;25.80;;;23.40;;
79460;SDS011;68929;42.666;23.324;2023-07-31T02:16:29;25.02;;;22.70;;
79460;SDS011;68929;42.666;23.324;2023-07-31T02:18:54;23.08;;;21.08;;
79460;SDS011;68929;42.666;23.324;2023-07-31T02:21:19;26.13;;;23.83;;
79460;SDS011;68929;42.666;23.324;2023-07-31T02:23:45;22.02;;;20.00;;
79460;SDS011;68929;42.666;23.324;2023-07-31T02:26:10;31.05;;;28.10;;
79460;SDS011;68929;42.666;23.324;2023-07-31T02:28:36;30.63;;;27.80;;
79460;SDS011;68929;42.666;23.324;2023-07-31T02:31:02;22.65;;;20.55;;
79460;SDS011;68929;42.666;23.324;2023-07-31T02:33:27;30.10;;;27.30;;
79460;SDS011;68929;42.666;23.324;2023-07-31T02:35:53;32.38;;;29.38;;
79460;SDS011;68929;42.666;23.324;2023-07-31T02:38:18;32.55;;;29.48;;
79460;SDS011;68929;42.666;23.324;2023-07-31T02:40:44;25.83;;;23.52;;
79460;SDS011;68929;42.666;23.324;2023-07-31T02:43:09;26.13;;;23.63;;
79460;SDS011;68929;42.666;23.324;2023-07-31T02:45:35;31.08;;;28.08;;
79460;SDS011;68929;42.666;23.324;2023-07-31T02:48:00;25.25;;;22.92;;
79460;SDS011;68929;42.666;23.324;2023-07-31T02:50:25;20.10;;;18.35;;
79460;SDS011;68929;42.666;23.324;2023-07-31T02:52:52;28.90;;;26.20;;
79460;SDS011;68929;42.666;23.324;2023-07-31T02:55:18;31.90;;;28.88;;
79460;SDS011;68929;42.666;23.324;2023-07-31T02:57:43;31.98;;;28.95;;
79460;SDS011;68929;42.666;23.324;2023-07-31T03:00:09;30.73;;;27.92;;
79460;SDS011;68929;42.666;23.324;2023-07-31T03:02:34;31.55;;;28.38;;
79460;SDS011;68929;42.666;23.324;2023-07-31T03:05:00;28.30;;;25.60;;
79460;SDS011;68929;42.666;23.324;2023-07-31T03:07:25;31.05;;;28.10;;
79460;SDS011;68929;42.666;23.324;2023-07-31T03:09:51;31.67;;;28.65;;
79460;SDS011;68929;42.666;23.324;2023-07-31T03:12:16;27.85;;;25.27;;
79460;SDS011;68929;42.666;23.324;2023-07-31T03:14:41;29.23;;;26.52;;
79460;SDS011;68929;42.666;23.324;2023-07-31T03:17:07;31.83;;;28.65;;
79460;SDS011;68929;42.666;23.324;2023-07-31T03:19:32;31.63;;;28.48;;
79460;SDS011;68929;42.666;23.324;2023-07-31T03:22:01;31.55;;;28.52;;
79460;SDS011;68929;42.666;23.324;2023-07-31T03:24:26;33.20;;;30.00;;
79460;SDS011;68929;42.666;23.324;2023-07-31T03:26:53;31.55;;;28.65;;
79460;SDS011;68929;42.666;23.324;2023-07-31T03:29:18;31.73;;;28.70;;
79460;SDS011;68929;42.666;23.324;2023-07-31T03:31:44;32.25;;;29.15;;
79460;SDS011;68929;42.666;23.324;2023-07-31T03:34:09;33.25;;;30.13;;
79460;SDS011;68929;42.666;23.324;2023-07-31T03:36:34;33.65;;;30.17;;
79460;SDS011;68929;42.666;23.324;2023-07-31T03:39:00;33.60;;;30.23;;
79460;SDS011;68929;42.666;23.324;2023-07-31T03:41:25;33.97;;;30.77;;
79460;SDS011;68929;42.666;23.324;2023-07-31T03:43:51;34.13;;;30.88;;
79460;SDS011;68929;42.666;23.324;2023-07-31T03:46:21;34.17;;;30.77;;
79460;SDS011;68929;42.666;23.324;2023-07-31T03:48:47;33.20;;;30.00;;
79460;SDS011;68929;42.666;23.324;2023-07-31T03:51:13;27.05;;;24.55;;
79460;SDS011;68929;42.666;23.324;2023-07-31T03:53:38;31.25;;;28.05;;
79460;SDS011;68929;42.666;23.324;2023-07-31T03:56:04;26.80;;;24.20;;
79460;SDS011;68929;42.666;23.324;2023-07-31T03:58:29;32.17;;;28.88;;
79460;SDS011;68929;42.666;23.324;2023-07-31T04:00:55;33.05;;;29.75;;
79460;SDS011;68929;42.666;23.324;2023-07-31T04:03:20;34.67;;;31.17;;
79460;SDS011;68929;42.666;23.324;2023-07-31T04:05:45;32.20;;;28.90;;
79460;SDS011;68929;42.666;23.324;2023-07-31T04:10:42;36.83;;;33.13;;
79460;SDS011;68929;42.666;23.324;2023-07-31T04:13:07;33.90;;;30.48;;
79460;SDS011;68929;42.666;23.324;2023-07-31T04:15:32;35.85;;;31.95;;
79460;SDS011;68929;42.666;23.324;2023-07-31T04:17:58;31.85;;;28.65;;
79460;SDS011;68929;42.666;23.324;2023-07-31T04:20:23;33.33;;;29.92;;
79460;SDS011;68929;42.666;23.324;2023-07-31T04:22:49;35.35;;;31.67;;
79460;SDS011;68929;42.666;23.324;2023-07-31T04:25:14;34.33;;;30.90;;
79460;SDS011;68929;42.666;23.324;2023-07-31T04:27:40;36.22;;;32.53;;
79460;SDS011;68929;42.666;23.324;2023-07-31T04:30:05;30.15;;;27.17;;
79460;SDS011;68929;42.666;23.324;2023-07-31T04:32:31;33.83;;;30.40;;
79460;SDS011;68929;42.666;23.324;2023-07-31T04:34:57;35.58;;;31.98;;
79460;SDS011;68929;42.666;23.324;2023-07-31T04:37:22;35.70;;;32.05;;
79460;SDS011;68929;42.666;23.324;2023-07-31T04:39:47;33.90;;;30.08;;
79460;SDS011;68929;42.666;23.324;2023-07-31T04:42:13;35.17;;;31.77;;
79460;SDS011;68929;42.666;23.324;2023-07-31T04:44:38;29.25;;;26.48;;
79460;SDS011;68929;42.666;23.324;2023-07-31T04:47:03;30.35;;;27.50;;
79460;SDS011;68929;42.666;23.324;2023-07-31T04:49:29;32.90;;;29.60;;
79460;SDS011;68929;42.666;23.324;2023-07-31T04:51:54;31.88;;;28.60;;
79460;SDS011;68929;42.666;23.324;2023-07-31T04:54:20;29.27;;;26.58;;
79460;SDS011;68929;42.666;23.324;2023-07-31T04:56:45;30.75;;;27.45;;
79460;SDS011;68929;42.666;23.324;2023-07-31T04:59:13;29.73;;;26.35;;
79460;SDS011;68929;42.666;23.324;2023-07-31T05:01:45;30.65;;;27.63;;
79460;SDS011;68929;42.666;23.324;2023-07-31T05:04:14;30.88;;;27.88;;
79460;SDS011;68929;42.666;23.324;2023-07-31T05:06:40;29.63;;;26.80;;
79460;SDS011;68929;42.666;23.324;2023-07-31T05:09:06;32.40;;;29.05;;
79460;SDS011;68929;42.666;23.324;2023-07-31T05:11:31;30.75;;;27.67;;
79460;SDS011;68929;42.666;23.324;2023-07-31T05:13:57;29.17;;;26.38;;
79460;SDS011;68929;42.666;23.324;2023-07-31T05:16:22;29.05;;;26.13;;
79460;SDS011;68929;42.666;23.324;2023-07-31T05:18:48;28.00;;;25.17;;
79460;SDS011;68929;42.666;23.324;2023-07-31T05:21:14;27.58;;;24.88;;
79460;SDS011;68929;42.666;23.324;2023-07-31T05:23:39;28.10;;;25.20;;
79460;SDS011;68929;42.666;23.324;2023-07-31T05:26:05;25.88;;;23.48;;
79460;SDS011;68929;42.666;23.324;2023-07-31T05:28:31;24.83;;;22.38;;
79460;SDS011;68929;42.666;23.324;2023-07-31T05:30:59;25.52;;;22.92;;
79460;SDS011;68929;42.666;23.324;2023-07-31T05:33:26;24.30;;;22.10;;
79460;SDS011;68929;42.666;23.324;2023-07-31T05:35:51;21.23;;;19.05;;
79460;SDS011;68929;42.666;23.324;2023-07-31T05:38:17;22.45;;;20.38;;
79460;SDS011;68929;42.666;23.324;2023-07-31T05:40:42;21.95;;;19.70;;
79460;SDS011;68929;42.666;23.324;2023-07-31T05:43:08;20.73;;;18.83;;
79460;SDS011;68929;42.666;23.324;2023-07-31T05:45:34;19.73;;;17.70;;
79460;SDS011;68929;42.666;23.324;2023-07-31T05:47:59;16.60;;;15.18;;
79460;SDS011;68929;42.666;23.324;2023-07-31T05:50:25;16.23;;;14.85;;
79460;SDS011;68929;42.666;23.324;2023-07-31T05:52:51;13.55;;;12.25;;
79460;SDS011;68929;42.666;23.324;2023-07-31T05:55:16;13.60;;;12.20;;
79460;SDS011;68929;42.666;23.324;2023-07-31T05:57:42;14.00;;;12.73;;
79460;SDS011;68929;42.666;23.324;2023-07-31T06:00:07;13.70;;;12.30;;
79460;SDS011;68929;42.666;23.324;2023-07-31T06:02:33;11.80;;;10.77;;
79460;SDS011;68929;42.666;23.324;2023-07-31T06:05:01;10.27;;;9.02;;
79460;SDS011;68929;42.666;23.324;2023-07-31T06:07:28;11.18;;;10.07;;
79460;SDS011;68929;42.666;23.324;2023-07-31T06:09:54;11.07;;;10.07;;
79460;SDS011;68929;42.666;23.324;2023-07-31T06:12:20;8.60;;;7.90;;
79460;SDS011;68929;42.666;23.324;2023-07-31T06:14:45;9.07;;;8.10;;
79460;SDS011;68929;42.666;23.324;2023-07-31T06:17:11;8.70;;;7.90;;
79460;SDS011;68929;42.666;23.324;2023-07-31T06:19:36;8.00;;;7.30;;
79460;SDS011;68929;42.666;23.324;2023-07-31T06:22:02;6.82;;;6.22;;
79460;SDS011;68929;42.666;23.324;2023-07-31T06:24:28;6.50;;;5.90;;
79460;SDS011;68929;42.666;23.324;2023-07-31T06:26:59;6.45;;;5.70;;
79460;SDS011;68929;42.666;23.324;2023-07-31T06:29:25;8.05;;;6.50;;
79460;SDS011;68929;42.666;23.324;2023-07-31T06:31:50;7.07;;;5.95;;
79460;SDS011;68929;42.666;23.324;2023-07-31T06:34:16;7.97;;;6.18;;
79460;SDS011;68929;42.666;23.324;2023-07-31T06:36:42;7.05;;;6.35;;
79460;SDS011;68929;42.666;23.324;2023-07-31T06:39:07;8.45;;;6.47;;
79460;SDS011;68929;42.666;23.324;2023-07-31T06:41:35;5.82;;;5.40;;
79460;SDS011;68929;42.666;23.324;2023-07-31T06:44:01;6.28;;;5.68;;
79460;SDS011;68929;42.666;23.324;2023-07-31T06:46:26;6.78;;;6.07;;
79460;SDS011;68929;42.666;23.324;2023-07-31T06:48:51;6.80;;;6.10;;
79460;SDS011;68929;42.666;23.324;2023-07-31T06:51:17;7.22;;;6.30;;
79460;SDS011;68929;42.666;23.324;2023-07-31T06:53:42;7.65;;;5.45;;
79460;SDS011;68929;42.666;23.324;2023-07-31T06:56:10;6.40;;;5.80;;
79460;SDS011;68929;42.666;23.324;2023-07-31T06:58:35;6.07;;;5.57;;
79460;SDS011;68929;42.666;23.324;2023-07-31T07:01:00;5.57;;;5.07;;
79460;SDS011;68929;42.666;23.324;2023-07-31T07:03:34;4.55;;;4.13;;
79460;SDS011;68929;42.666;23.324;2023-07-31T07:05:59;5.90;;;5.30;;
79460;SDS011;68929;42.666;23.324;2023-07-31T07:08:25;6.05;;;5.45;;
79460;SDS011;68929;42.666;23.324;2023-07-31T07:10:53;5.93;;;5.20;;
79460;SDS011;68929;42.666;23.324;2023-07-31T07:13:28;5.68;;;5.13;;
79460;SDS011;68929;42.666;23.324;2023-07-31T07:15:59;6.53;;;4.68;;
79460;SDS011;68929;42.666;23.324;2023-07-31T07:18:28;6.60;;;5.18;;
79460;SDS011;68929;42.666;23.324;2023-07-31T07:20:54;5.72;;;3.75;;
79460;SDS011;68929;42.666;23.324;2023-07-31T07:23:20;5.88;;;5.28;;
79460;SDS011;68929;42.666;23.324;2023-07-31T07:25:46;4.35;;;3.65;;
79460;SDS011;68929;42.666;23.324;2023-07-31T07:28:13;4.60;;;4.20;;
79460;SDS011;68929;42.666;23.324;2023-07-31T07:30:38;4.93;;;4.43;;
79460;SDS011;68929;42.666;23.324;2023-07-31T07:33:04;5.38;;;4.45;;
79460;SDS011;68929;42.666;23.324;2023-07-31T07:35:30;6.25;;;3.95;;
79460;SDS011;68929;42.666;23.324;2023-07-31T07:37:57;9.25;;;4.70;;
79460;SDS011;68929;42.666;23.324;2023-07-31T07:40:23;9.02;;;5.80;;
79460;SDS011;68929;42.666;23.324;2023-07-31T07:42:49;4.82;;;4.43;;
79460;SDS011;68929;42.666;23.324;2023-07-31T07:45:15;5.22;;;4.13;;
79460;SDS011;68929;42.666;23.324;2023-07-31T07:47:42;6.20;;;4.63;;
79460;SDS011;68929;42.666;23.324;2023-07-31T07:50:13;6.25;;;4.75;;
79460;SDS011;68929;42.666;23.324;2023-07-31T07:52:40;6.43;;;4.68;;
79460;SDS011;68929;42.666;23.324;2023-07-31T07:55:07;4.70;;;3.95;;
79460;SDS011;68929;42.666;23.324;2023-07-31T07:57:36;4.65;;;4.13;;
79460;SDS011;68929;42.666;23.324;2023-07-31T08:00:02;3.80;;;3.50;;
79460;SDS011;68929;42.666;23.324;2023-07-31T08:02:31;4.80;;;3.80;;
79460;SDS011;68929;42.666;23.324;2023-07-31T08:05:00;4.40;;;3.88;;
79460;SDS011;68929;42.666;23.324;2023-07-31T08:07:26;4.50;;;4.03;;
79460;SDS011;68929;42.666;23.324;2023-07-31T08:09:51;5.25;;;3.53;;
79460;SDS011;68929;42.666;23.324;2023-07-31T08:12:17;4.75;;;4.25;;
79460;SDS011;68929;42.666;23.324;2023-07-31T08:14:42;7.63;;;4.20;;
79460;SDS011;68929;42.666;23.324;2023-07-31T08:17:08;4.32;;;3.92;;
79460;SDS011;68929;42.666;23.324;2023-07-31T08:19:37;5.00;;;3.85;;
79460;SDS011;68929;42.666;23.324;2023-07-31T08:22:07;4.50;;;4.10;;
79460;SDS011;68929;42.666;23.324;2023-07-31T08:24:38;4.35;;;3.88;;
79460;SDS011;68929;42.666;23.324;2023-07-31T08:27:14;6.20;;;4.00;;
79460;SDS011;68929;42.666;23.324;2023-07-31T08:29:39;5.18;;;4.15;;
79460;SDS011;68929;42.666;23.324;2023-07-31T08:32:05;4.70;;;3.53;;
79460;SDS011;68929;42.666;23.324;2023-07-31T08:34:34;4.43;;;4.03;;
79460;SDS011;68929;42.666;23.324;2023-07-31T08:36:59;5.82;;;3.83;;
79460;SDS011;68929;42.666;23.324;2023-07-31T08:39:29;5.40;;;3.80;;
79460;SDS011;68929;42.666;23.324;2023-07-31T08:41:59;4.32;;;3.92;;
79460;SDS011;68929;42.666;23.324;2023-07-31T08:44:25;4.40;;;4.00;;
79460;SDS011;68929;42.666;23.324;2023-07-31T08:46:50;3.90;;;3.50;;
79460;SDS011;68929;42.666;23.324;2023-07-31T08:49:21;4.45;;;3.85;;
79460;SDS011;68929;42.666;23.324;2023-07-31T08:51:52;4.05;;;3.70;;
79460;SDS011;68929;42.666;23.324;2023-07-31T08:54:19;3.92;;;3.60;;
79460;SDS011;68929;42.666;23.324;2023-07-31T08:56:45;4.43;;;3.55;;
79460;SDS011;68929;42.666;23.324;2023-07-31T08:59:11;4.97;;;3.45;;
79460;SDS011;68929;42.666;23.324;2023-07-31T09:01:43;5.55;;;3.53;;
79460;SDS011;68929;42.666;23.324;2023-07-31T09:04:15;5.53;;;4.25;;
79460;SDS011;68929;42.666;23.324;2023-07-31T09:06:44;3.88;;;3.58;;
79460;SDS011;68929;42.666;23.324;2023-07-31T09:09:10;8.07;;;3.80;;
79460;SDS011;68929;42.666;23.324;2023-07-31T09:11:35;3.70;;;3.38;;
79460;SDS011;68929;42.666;23.324;2023-07-31T09:14:01;4.60;;;3.30;;
79460;SDS011;68929;42.666;23.324;2023-07-31T09:16:33;4.85;;;3.40;;
79460;SDS011;68929;42.666;23.324;2023-07-31T09:18:59;3.67;;;3.25;;
79460;SDS011;68929;42.666;23.324;2023-07-31T09:21:28;12.45;;;3.70;;
79460;SDS011;68929;42.666;23.324;2023-07-31T09:23:54;2.95;;;2.72;;
79460;SDS011;68929;42.666;23.324;2023-07-31T09:28:59;3.72;;;3.42;;
79460;SDS011;68929;42.666;23.324;2023-07-31T09:31:32;4.25;;;3.85;;
79460;SDS011;68929;42.666;23.324;2023-07-31T09:33:58;7.78;;;4.20;;
79460;SDS011;68929;42.666;23.324;2023-07-31T09:36:23;4.00;;;3.58;;
79460;SDS011;68929;42.666;23.324;2023-07-31T09:38:49;4.18;;;3.40;;
79460;SDS011;68929;42.666;23.324;2023-07-31T09:41:14;4.85;;;3.75;;
79460;SDS011;68929;42.666;23.324;2023-07-31T09:43:39;4.05;;;3.63;;
79460;SDS011;68929;42.666;23.324;2023-07-31T09:46:05;6.25;;;4.32;;
79460;SDS011;68929;42.666;23.324;2023-07-31T09:48:38;5.13;;;4.10;;
79460;SDS011;68929;42.666;23.324;2023-07-31T09:51:04;3.75;;;3.42;;
79460;SDS011;68929;42.666;23.324;2023-07-31T09:53:30;4.13;;;3.75;;
79460;SDS011;68929;42.666;23.324;2023-07-31T09:55:58;4.75;;;3.75;;
79460;SDS011;68929;42.666;23.324;2023-07-31T09:58:28;5.47;;;3.85;;
79460;SDS011;68929;42.666;23.324;2023-07-31T10:00:55;4.20;;;3.40;;
79460;SDS011;68929;42.666;23.324;2023-07-31T10:03:23;4.18;;;3.22;;
79460;SDS011;68929;42.666;23.324;2023-07-31T10:05:50;3.13;;;2.92;;
79460;SDS011;68929;42.666;23.324;2023-07-31T10:08:18;3.88;;;3.17;;
79460;SDS011;68929;42.666;23.324;2023-07-31T10:10:46;3.53;;;3.22;;
79460;SDS011;68929;42.666;23.324;2023-07-31T10:13:12;4.68;;;2.95;;
79460;SDS011;68929;42.666;23.324;2023-07-31T10:15:39;5.43;;;3.13;;
79460;SDS011;68929;42.666;23.324;2023-07-31T10:18:08;4.20;;;2.85;;
79460;SDS011;68929;42.666;23.324;2023-07-31T10:20:37;2.75;;;2.55;;
79460;SDS011;68929;42.666;23.324;2023-07-31T10:23:12;2.65;;;2.45;;
79460;SDS011;68929;42.666;23.324;2023-07-31T10:25:38;2.90;;;2.70;;
79460;SDS011;68929;42.666;23.324;2023-07-31T10:28:04;2.63;;;2.42;;
79460;SDS011;68929;42.666;23.324;2023-07-31T10:30:29;2.63;;;2.40;;
79460;SDS011;68929;42.666;23.324;2023-07-31T10:32:57;3.10;;;2.50;;
79460;SDS011;68929;42.666;23.324;2023-07-31T10:35:23;2.88;;;2.28;;
79460;SDS011;68929;42.666;23.324;2023-07-31T10:37:49;3.38;;;2.33;;
79460;SDS011;68929;42.666;23.324;2023-07-31T10:40:19;3.20;;;2.90;;
79460;SDS011;68929;42.666;23.324;2023-07-31T10:42:57;3.88;;;2.53;;
79460;SDS011;68929;42.666;23.324;2023-07-31T10:48:03;2.80;;;2.60;;
79460;SDS011;68929;42.666;23.324;2023-07-31T10:50:36;4.95;;;2.40;;
79460;SDS011;68929;42.666;23.324;2023-07-31T10:53:06;3.75;;;2.30;;
79460;SDS011;68929;42.666;23.324;2023-07-31T10:55:44;3.70;;;2.35;;
79460;SDS011;68929;42.666;23.324;2023-07-31T10:58:13;5.00;;;2.47;;
79460;SDS011;68929;42.666;23.324;2023-07-31T11:00:44;3.05;;;2.35;;
79460;SDS011;68929;42.666;23.324;2023-07-31T11:10:50;2.15;;;2.00;;
79460;SDS011;68929;42.666;23.324;2023-07-31T11:13:21;2.58;;;2.35;;
79460;SDS011;68929;42.666;23.324;2023-07-31T11:15:47;2.40;;;2.20;;
79460;SDS011;68929;42.666;23.324;2023-07-31T11:18:12;2.13;;;1.92;;
79460;SDS011;68929;42.666;23.324;2023-07-31T11:20:39;2.50;;;2.30;;
79460;SDS011;68929;42.666;23.324;2023-07-31T11:23:06;3.35;;;2.10;;
79460;SDS011;68929;42.666;23.324;2023-07-31T11:25:39;2.38;;;2.10;;
79460;SDS011;68929;42.666;23.324;2023-07-31T11:28:10;2.85;;;2.38;;
79460;SDS011;68929;42.666;23.324;2023-07-31T11:30:37;2.35;;;1.98;;
79460;SDS011;68929;42.666;23.324;2023-07-31T11:33:08;5.55;;;2.22;;
79460;SDS011;68929;42.666;23.324;2023-07-31T11:35:56;2.13;;;1.88;;
79460;SDS011;68929;42.666;23.324;2023-07-31T11:38:21;2.70;;;2.10;;
79460;SDS011;68929;42.666;23.324;2023-07-31T11:40:55;5.10;;;2.50;;
79460;SDS011;68929;42.666;23.324;2023-07-31T11:43:23;4.88;;;3.15;;
79460;SDS011;68929;42.666;23.324;2023-07-31T11:45:53;3.15;;;2.85;;
79460;SDS011;68929;42.666;23.324;2023-07-31T11:48:21;3.47;;;3.17;;
79460;SDS011;68929;42.666;23.324;2023-07-31T11:51:03;5.35;;;3.22;;
79460;SDS011;68929;42.666;23.324;2023-07-31T11:53:41;3.50;;;2.80;;
79460;SDS011;68929;42.666;23.324;2023-07-31T11:56:12;3.22;;;2.92;;
79460;SDS011;68929;42.666;23.324;2023-07-31T11:58:45;3.35;;;3.05;;
79460;SDS011;68929;42.666;23.324;2023-07-31T12:01:13;3.20;;;2.90;;
79460;SDS011;68929;42.666;23.324;2023-07-31T12:03:40;4.45;;;3.17;;
79460;SDS011;68929;42.666;23.324;2023-07-31T12:06:08;3.00;;;2.60;;
79460;SDS011;68929;42.666;23.324;2023-07-31T12:08:34;3.30;;;2.85;;
79460;SDS011;68929;42.666;23.324;2023-07-31T12:11:05;5.68;;;3.60;;
79460;SDS011;68929;42.666;23.324;2023-07-31T12:13:32;3.95;;;3.65;;
79460;SDS011;68929;42.666;23.324;2023-07-31T12:16:06;5.70;;;3.38;;
79460;SDS011;68929;42.666;23.324;2023-07-31T12:18:35;4.00;;;3.70;;
79460;SDS011;68929;42.666;23.324;2023-07-31T12:21:04;6.07;;;3.90;;
79460;SDS011;68929;42.666;23.324;2023-07-31T12:23:31;4.57;;;4.03;;
79460;SDS011;68929;42.666;23.324;2023-07-31T12:26:06;6.78;;;5.60;;
79460;SDS011;68929;42.666;23.324;2023-07-31T12:28:44;7.03;;;6.37;;
79460;SDS011;68929;42.666;23.324;2023-07-31T12:31:15;7.80;;;6.15;;
79460;SDS011;68929;42.666;23.324;2023-07-31T12:33:46;6.40;;;5.80;;
79460;SDS011;68929;42.666;23.324;2023-07-31T12:36:23;5.35;;;4.85;;
79460;SDS011;68929;42.666;23.324;2023-07-31T12:38:55;5.60;;;5.20;;
79460;SDS011;68929;42.666;23.324;2023-07-31T12:41:32;5.43;;;4.90;;
79460;SDS011;68929;42.666;23.324;2023-07-31T12:43:58;5.10;;;4.68;;
79460;SDS011;68929;42.666;23.324;2023-07-31T12:46:23;5.70;;;4.72;;
79460;SDS011;68929;42.666;23.324;2023-07-31T12:48:48;5.35;;;4.88;;
79460;SDS011;68929;42.666;23.324;2023-07-31T12:51:18;5.60;;;5.10;;
79460;SDS011;68929;42.666;23.324;2023-07-31T12:53:43;7.82;;;5.75;;
79460;SDS011;68929;42.666;23.324;2023-07-31T12:56:13;6.55;;;5.88;;
79460;SDS011;68929;42.666;23.324;2023-07-31T12:58:42;6.15;;;5.65;;
79460;SDS011;68929;42.666;23.324;2023-07-31T13:01:08;5.82;;;5.32;;
79460;SDS011;68929;42.666;23.324;2023-07-31T13:03:34;6.63;;;5.93;;
79460;SDS011;68929;42.666;23.324;2023-07-31T13:05:59;5.80;;;5.15;;
79460;SDS011;68929;42.666;23.324;2023-07-31T13:08:25;7.03;;;6.38;;
79460;SDS011;68929;42.666;23.324;2023-07-31T13:10:50;6.70;;;6.20;;
79460;SDS011;68929;42.666;23.324;2023-07-31T13:13:16;7.40;;;6.70;;
79460;SDS011;68929;42.666;23.324;2023-07-31T13:15:41;12.05;;;6.40;;
79460;SDS011;68929;42.666;23.324;2023-07-31T13:18:13;6.57;;;5.97;;
79460;SDS011;68929;42.666;23.324;2023-07-31T13:20:39;7.35;;;5.72;;
79460;SDS011;68929;42.666;23.324;2023-07-31T13:23:08;6.47;;;5.97;;
79460;SDS011;68929;42.666;23.324;2023-07-31T13:25:35;6.80;;;6.20;;
79460;SDS011;68929;42.666;23.324;2023-07-31T13:28:04;6.15;;;5.60;;
79460;SDS011;68929;42.666;23.324;2023-07-31T13:30:29;6.07;;;4.90;;
79460;SDS011;68929;42.666;23.324;2023-07-31T13:32:55;5.57;;;5.03;;
79460;SDS011;68929;42.666;23.324;2023-07-31T13:35:20;8.65;;;4.97;;
79460;SDS011;68929;42.666;23.324;2023-07-31T13:37:46;5.90;;;4.57;;
79460;SDS011;68929;42.666;23.324;2023-07-31T13:40:16;8.60;;;5.45;;
79460;SDS011;68929;42.666;23.324;2023-07-31T13:42:41;5.07;;;4.68;;
79460;SDS011;68929;42.666;23.324;2023-07-31T13:45:07;7.47;;;5.05;;
79460;SDS011;68929;42.666;23.324;2023-07-31T13:47:32;6.90;;;5.10;;
79460;SDS011;68929;42.666;23.324;2023-07-31T13:50:02;4.88;;;4.40;;
79460;SDS011;68929;42.666;23.324;2023-07-31T13:52:28;5.40;;;4.90;;
79460;SDS011;68929;42.666;23.324;2023-07-31T13:54:53;4.82;;;4.40;;
79460;SDS011;68929;42.666;23.324;2023-07-31T13:57:18;5.38;;;4.72;;
79460;SDS011;68929;42.666;23.324;2023-07-31T13:59:44;7.18;;;4.25;;
79460;SDS011;68929;42.666;23.324;2023-07-31T14:02:15;4.85;;;4.40;;
79460;SDS011;68929;42.666;23.324;2023-07-31T14:04:48;4.97;;;4.03;;
79460;SDS011;68929;42.666;23.324;2023-07-31T14:07:13;4.93;;;4.00;;
79460;SDS011;68929;42.666;23.324;2023-07-31T14:09:39;4.60;;;4.00;;
79460;SDS011;68929;42.666;23.324;2023-07-31T14:12:04;4.80;;;4.40;;
79460;SDS011;68929;42.666;23.324;2023-07-31T14:14:30;5.07;;;4.68;;
79460;SDS011;68929;42.666;23.324;2023-07-31T14:16:55;5.82;;;4.10;;
79460;SDS011;68929;42.666;23.324;2023-07-31T14:19:21;4.55;;;4.25;;
79460;SDS011;68929;42.666;23.324;2023-07-31T14:21:46;5.07;;;4.32;;
79460;SDS011;68929;42.666;23.324;2023-07-31T14:24:11;5.15;;;4.75;;
79460;SDS011;68929;42.666;23.324;2023-07-31T14:26:37;5.25;;;4.50;;
79460;SDS011;68929;42.666;23.324;2023-07-31T14:29:02;5.60;;;4.38;;
79460;SDS011;68929;42.666;23.324;2023-07-31T14:31:28;6.57;;;5.00;;
79460;SDS011;68929;42.666;23.324;2023-07-31T14:33:57;4.78;;;4.38;;
79460;SDS011;68929;42.666;23.324;2023-07-31T14:36:26;5.13;;;3.63;;
79460;SDS011;68929;42.666;23.324;2023-07-31T14:38:52;5.00;;;4.32;;
79460;SDS011;68929;42.666;23.324;2023-07-31T14:41:17;4.63;;;4.22;;
79460;SDS011;68929;42.666;23.324;2023-07-31T14:43:42;8.88;;;4.32;;
79460;SDS011;68929;42.666;23.324;2023-07-31T14:46:08;4.68;;;4.28;;